Irma, Canada
Current Conditions -  °F | °C
As of 4:00 AM on Friday 24 Oct 2014 (Local Time) from CYLL Reporting Station
Broken Clouds Broken Clouds  
Wind Chill: 30°   Ceiling: 21000
Heat Index: 39°   Visibility: 9mi
Dew Point: 30°   Wind: 16mph
Humidity: 70%   Direction: 280°W
Pressure: 29.59"   Gusts: 22mph
Location:  52.92°N, 111.23°W
Report Text: CYLL 241000Z AUTO 28014G19KT 9SM FEW150 BKN210 04/M01 A2959 RMK SLP033
Loading
Personal Weather Stations






























Interactive Weather Map
Tropical Storm Tracking
New forecast layout! Learn more

10-Day Weather Forecast

Advertisements
Track Severe Weather on mobile